createdAt,value
2018-08-02T00:00:26.035Z,19.00
2018-08-02T00:02:54.164Z,18.60
2018-08-02T00:05:22.377Z,19.73
2018-08-02T00:07:50.501Z,19.50
2018-08-02T00:10:19.625Z,19.03
2018-08-02T00:12:47.732Z,19.73
2018-08-02T00:15:15.874Z,19.77
2018-08-02T00:17:43.963Z,21.07
2018-08-02T00:20:12.110Z,20.20
2018-08-02T00:22:40.279Z,20.30
2018-08-02T00:25:09.136Z,19.87
2018-08-02T00:27:37.577Z,19.70
2018-08-02T00:30:06.594Z,20.40
2018-08-02T00:32:35.603Z,20.23
2018-08-02T00:35:03.859Z,20.97
2018-08-02T00:37:32.012Z,22.10
2018-08-02T00:40:00.126Z,20.43
2018-08-02T00:42:28.262Z,20.30
2018-08-02T00:47:30.946Z,20.73
2018-08-02T00:49:59.069Z,20.83
2018-08-02T00:52:27.193Z,21.83
2018-08-02T00:54:55.358Z,20.80
2018-08-02T00:57:23.509Z,20.93
2018-08-02T00:59:51.637Z,21.40
2018-08-02T01:02:19.755Z,20.67
2018-08-02T01:04:47.879Z,22.27
2018-08-02T01:07:16.002Z,22.07
2018-08-02T01:09:44.113Z,22.27
2018-08-02T01:12:12.281Z,22.63
2018-08-02T01:14:40.382Z,22.13
2018-08-02T01:17:09.411Z,22.50
2018-08-02T01:19:37.539Z,22.37
2018-08-02T01:22:05.640Z,22.17
2018-08-02T01:24:33.739Z,22.77
2018-08-02T01:27:01.875Z,22.67
2018-08-02T01:29:29.998Z,23.30
2018-08-02T01:31:58.114Z,21.70
2018-08-02T01:34:26.251Z,22.70
2018-08-02T01:36:54.388Z,22.07
2018-08-02T01:39:22.494Z,23.03
2018-08-02T01:41:50.641Z,22.73
2018-08-02T01:44:30.195Z,22.77
2018-08-02T01:46:58.347Z,23.33
2018-08-02T01:49:26.460Z,22.73
2018-08-02T01:51:54.583Z,22.63
2018-08-02T01:54:22.746Z,22.83
2018-08-02T01:56:50.896Z,22.53
2018-08-02T01:59:19.014Z,23.50
2018-08-02T02:01:47.137Z,24.33
2018-08-02T02:04:15.249Z,23.97
2018-08-02T02:06:43.358Z,23.80
2018-08-02T02:09:11.494Z,24.17
2018-08-02T02:11:39.600Z,23.03
2018-08-02T02:14:07.710Z,22.80
2018-08-02T02:16:35.850Z,22.47
2018-08-02T02:19:03.996Z,23.00
2018-08-02T02:21:32.124Z,23.00
2018-08-02T02:24:00.275Z,23.57
2018-08-02T02:26:28.409Z,23.30
2018-08-02T02:28:56.542Z,23.67
2018-08-02T02:31:24.684Z,22.53
2018-08-02T02:33:53.839Z,23.23
2018-08-02T02:36:21.984Z,23.23
2018-08-02T02:38:50.637Z,22.73
2018-08-02T02:41:18.812Z,22.37
2018-08-02T02:43:47.002Z,22.77
2018-08-02T02:46:15.163Z,22.90
2018-08-02T02:48:43.278Z,22.93
2018-08-02T02:51:11.405Z,21.67
2018-08-02T02:53:39.583Z,21.57
2018-08-02T02:56:07.747Z,22.43
2018-08-02T02:58:35.871Z,22.60
2018-08-02T03:01:04.005Z,21.70
2018-08-02T03:03:32.166Z,21.70
2018-08-02T03:06:00.291Z,21.57
2018-08-02T03:08:28.522Z,21.07
2018-08-02T03:10:56.629Z,20.80
2018-08-02T03:13:24.758Z,20.70
2018-08-02T03:15:52.873Z,21.03
2018-08-02T03:18:20.998Z,21.03
2018-08-02T03:20:49.133Z,20.60
2018-08-02T03:23:17.238Z,20.67
2018-08-02T03:25:45.400Z,22.37
2018-08-02T03:28:13.522Z,21.47
2018-08-02T03:30:41.652Z,21.87
2018-08-02T03:33:09.838Z,21.73
2018-08-02T03:35:38.016Z,22.30
2018-08-02T03:38:06.166Z,23.50
2018-08-02T03:40:34.307Z,22.67
2018-08-02T03:43:02.469Z,22.70
2018-08-02T03:45:30.606Z,24.10
2018-08-02T03:47:58.816Z,24.20
2018-08-02T03:50:26.984Z,25.00
2018-08-02T03:52:56.094Z,25.60
2018-08-02T03:55:24.253Z,26.30
2018-08-02T03:57:52.398Z,24.03
2018-08-02T04:00:20.514Z,28.87
2018-08-02T04:02:48.691Z,26.20
2018-08-02T04:05:16.826Z,24.17
2018-08-02T04:07:44.984Z,24.07
2018-08-02T04:10:13.141Z,24.43
2018-08-02T04:12:41.325Z,23.53
2018-08-02T04:15:10.444Z,23.13
2018-08-02T04:17:38.639Z,22.53
2018-08-02T04:20:07.161Z,22.73
2018-08-02T04:22:35.567Z,22.33
2018-08-02T04:25:03.776Z,33.93
2018-08-02T04:27:32.328Z,26.73
2018-08-02T04:30:00.705Z,26.50
2018-08-02T04:32:28.855Z,19.57
2018-08-02T04:34:57.042Z,18.73
2018-08-02T04:37:25.523Z,18.20
2018-08-02T04:39:53.646Z,17.57
2018-08-02T04:42:21.770Z,15.97
2018-08-02T04:44:49.889Z,17.10
2018-08-02T04:47:18.019Z,16.33
2018-08-02T04:49:46.163Z,16.57
2018-08-02T04:52:14.274Z,17.43
2018-08-02T04:54:42.413Z,15.53
2018-08-02T04:57:10.544Z,15.80
2018-08-02T04:59:38.711Z,14.30
2018-08-02T05:02:06.833Z,13.60
2018-08-02T05:04:34.974Z,13.73
2018-08-02T05:07:03.085Z,13.73
2018-08-02T05:09:31.217Z,13.40
2018-08-02T05:11:59.321Z,15.37
2018-08-02T05:14:27.462Z,15.00
2018-08-02T05:16:55.571Z,13.93
2018-08-02T05:19:23.770Z,13.50
2018-08-02T05:21:51.882Z,13.50
2018-08-02T05:24:20.010Z,12.80
2018-08-02T05:26:53.996Z,12.40
2018-08-02T05:29:23.090Z,12.53
2018-08-02T05:31:51.261Z,13.00
2018-08-02T05:34:19.558Z,12.70
2018-08-02T05:36:48.201Z,12.50
2018-08-02T05:39:15.874Z,12.57
2018-08-02T05:41:44.013Z,12.27
2018-08-02T05:44:12.160Z,12.03
2018-08-02T05:46:40.374Z,11.67
2018-08-02T05:49:08.483Z,11.83
2018-08-02T05:51:37.084Z,11.67
2018-08-02T05:54:05.272Z,11.47
2018-08-02T05:56:33.434Z,13.23
2018-08-02T05:59:01.573Z,13.43
2018-08-02T06:01:29.733Z,13.70
2018-08-02T06:03:57.862Z,12.53
2018-08-02T06:06:26.070Z,11.47
2018-08-02T06:08:54.248Z,11.70
2018-08-02T06:11:22.341Z,11.43
2018-08-02T06:13:50.332Z,11.43
2018-08-02T06:16:18.485Z,11.33
2018-08-02T06:18:46.724Z,12.50
2018-08-02T06:21:14.892Z,11.63
2018-08-02T06:23:43.048Z,11.43
2018-08-02T06:26:11.255Z,17.40
2018-08-02T06:28:39.394Z,15.33
2018-08-02T06:31:07.598Z,12.40
2018-08-02T06:33:35.764Z,11.47
2018-08-02T06:36:03.939Z,11.13
2018-08-02T06:38:32.117Z,11.43
2018-08-02T06:41:00.222Z,11.80
2018-08-02T06:43:36.817Z,11.00
2018-08-02T06:46:05.004Z,11.70
2018-08-02T06:48:32.236Z,11.47
2018-08-02T06:51:00.362Z,11.07
2018-08-02T06:53:28.727Z,11.20
2018-08-02T06:55:56.913Z,11.87
2018-08-02T06:58:25.043Z,11.57
2018-08-02T07:00:53.843Z,11.40
2018-08-02T07:03:21.968Z,11.67
2018-08-02T07:05:50.082Z,11.60
2018-08-02T07:08:18.210Z,11.00
2018-08-02T07:10:46.348Z,11.90
2018-08-02T07:13:14.466Z,11.33
2018-08-02T07:15:42.574Z,11.90
2018-08-02T07:18:10.748Z,10.70
2018-08-02T07:20:38.850Z,11.53
2018-08-02T07:23:07.283Z,11.47
2018-08-02T07:25:35.749Z,11.57
2018-08-02T07:28:03.892Z,11.13
2018-08-02T07:30:32.019Z,11.63
2018-08-02T07:33:00.186Z,10.63
2018-08-02T07:35:28.295Z,10.90
2018-08-02T07:37:56.477Z,10.67
2018-08-02T07:40:24.636Z,11.00
2018-08-02T07:42:52.770Z,11.30
2018-08-02T07:45:20.938Z,11.70
2018-08-02T07:47:49.095Z,11.03
2018-08-02T07:50:17.235Z,11.77
2018-08-02T07:52:45.409Z,11.23
2018-08-02T07:55:13.594Z,10.97
2018-08-02T07:57:41.752Z,10.83
2018-08-02T08:00:10.249Z,11.40
2018-08-02T08:02:38.414Z,11.17
2018-08-02T08:05:06.630Z,10.70
2018-08-02T08:07:35.327Z,11.53
2018-08-02T08:10:04.537Z,10.20
2018-08-02T08:12:38.392Z,10.63
2018-08-02T08:15:06.579Z,10.87
2018-08-02T08:17:34.835Z,10.90
2018-08-02T08:20:03.008Z,10.60
2018-08-02T08:22:31.251Z,10.50
2018-08-02T08:24:59.366Z,10.70
2018-08-02T08:27:27.461Z,10.70
2018-08-02T08:29:55.610Z,10.33
2018-08-02T08:32:23.805Z,10.27
2018-08-02T08:34:51.939Z,10.27
2018-08-02T08:37:26.505Z,10.43
2018-08-02T08:39:48.253Z,10.37
2018-08-02T08:42:16.354Z,10.13
2018-08-02T08:44:44.590Z,10.13
2018-08-02T08:47:12.829Z,10.90
2018-08-02T08:49:45.600Z,9.97
2018-08-02T08:52:14.113Z,10.40
2018-08-02T08:54:42.275Z,11.00
2018-08-02T08:57:10.769Z,10.30
2018-08-02T08:59:41.001Z,10.50
2018-08-02T09:02:09.175Z,10.50
2018-08-02T09:04:37.300Z,10.77
2018-08-02T09:07:05.689Z,10.50
2018-08-02T09:09:33.902Z,10.30
2018-08-02T09:12:01.963Z,9.70
2018-08-02T09:14:30.119Z,10.47
2018-08-02T09:16:58.311Z,10.43
2018-08-02T09:19:26.479Z,10.83
2018-08-02T09:21:54.633Z,9.50
2018-08-02T09:24:22.751Z,9.13
2018-08-02T09:26:50.980Z,9.37
2018-08-02T09:29:19.074Z,9.90
2018-08-02T09:31:47.241Z,9.00
2018-08-02T09:34:15.434Z,9.83
2018-08-02T09:36:43.627Z,9.50
2018-08-02T09:39:12.586Z,9.20
2018-08-02T09:41:40.707Z,9.20
2018-08-02T09:44:09.546Z,9.00
2018-08-02T09:46:37.741Z,9.43
2018-08-02T09:49:06.414Z,9.00
2018-08-02T09:51:34.781Z,9.60
2018-08-02T09:54:03.182Z,9.00
2018-08-02T09:56:31.323Z,8.40
2018-08-02T09:58:59.478Z,8.90
2018-08-02T10:01:32.994Z,8.80
2018-08-02T10:04:01.194Z,7.97
2018-08-02T10:06:29.361Z,7.28
2018-08-02T10:08:57.538Z,8.03
2018-08-02T10:11:25.673Z,8.45
2018-08-02T10:13:53.843Z,8.50
2018-08-02T10:16:22.562Z,7.83
2018-08-02T10:18:50.685Z,8.25
2018-08-02T10:21:18.846Z,8.40
2018-08-02T10:23:47.017Z,8.07
2018-08-02T10:26:15.197Z,8.50
2018-08-02T10:28:43.342Z,8.67
2018-08-02T10:31:11.459Z,8.27
2018-08-02T10:33:46.407Z,9.00
2018-08-02T10:36:14.575Z,8.40
2018-08-02T10:38:42.712Z,8.57
2018-08-02T10:41:10.890Z,8.47
2018-08-02T10:43:39.593Z,8.07
2018-08-02T10:46:08.020Z,8.73
2018-08-02T10:48:36.168Z,9.13
2018-08-02T10:51:04.666Z,9.00
2018-08-02T10:53:32.801Z,8.73
2018-08-02T10:56:00.951Z,9.00
2018-08-02T10:58:29.135Z,9.30
2018-08-02T11:00:57.560Z,9.00
2018-08-02T11:03:25.706Z,9.07
2018-08-02T11:05:53.834Z,9.07
2018-08-02T11:08:21.988Z,8.87
2018-08-02T11:10:50.100Z,9.40
2018-08-02T11:13:18.206Z,9.13
2018-08-02T11:15:46.312Z,9.70
2018-08-02T11:18:14.442Z,9.33
2018-08-02T11:20:42.584Z,9.40
2018-08-02T11:23:10.698Z,9.43
2018-08-02T11:25:38.811Z,8.80
2018-08-02T11:28:06.968Z,9.30
2018-08-02T11:30:35.091Z,9.00
2018-08-02T11:33:03.232Z,9.13
2018-08-02T11:35:31.384Z,8.80
2018-08-02T11:37:59.513Z,9.47
2018-08-02T11:40:27.631Z,9.20
2018-08-02T11:42:55.811Z,8.23
2018-08-02T11:45:23.962Z,7.77
2018-08-02T11:47:52.068Z,7.63
2018-08-02T11:50:20.214Z,7.93
2018-08-02T11:52:48.323Z,6.93
2018-08-02T11:55:16.429Z,7.00
2018-08-02T11:57:44.587Z,7.00
2018-08-02T12:00:12.674Z,6.77
2018-08-02T12:02:40.785Z,6.53
2018-08-02T12:05:08.906Z,6.47
2018-08-02T12:07:36.992Z,6.50
2018-08-02T12:10:05.581Z,6.65
2018-08-02T12:12:33.846Z,6.47
2018-08-02T12:15:02.011Z,6.53
2018-08-02T12:17:30.121Z,6.58
2018-08-02T12:19:58.255Z,6.67
2018-08-02T12:22:27.365Z,6.75
2018-08-02T12:24:55.769Z,6.20
2018-08-02T12:27:23.922Z,6.50
2018-08-02T12:29:52.019Z,6.55
2018-08-02T12:32:20.169Z,7.12
2018-08-02T12:34:48.296Z,7.28
2018-08-02T12:37:16.432Z,6.70
2018-08-02T12:39:44.556Z,7.05
2018-08-02T12:42:12.708Z,7.35
2018-08-02T12:44:40.851Z,7.90
2018-08-02T12:47:09.040Z,7.63
2018-08-02T12:49:37.149Z,7.83
2018-08-02T12:52:05.295Z,8.10
2018-08-02T12:54:33.438Z,11.63
2018-08-02T12:57:01.581Z,9.27
2018-08-02T12:59:29.713Z,8.57
2018-08-02T13:01:57.842Z,8.80
2018-08-02T13:04:25.959Z,8.83
2018-08-02T13:06:54.083Z,9.13
2018-08-02T13:09:22.229Z,9.23
2018-08-02T13:11:50.298Z,9.20
2018-08-02T13:14:18.398Z,9.17
2018-08-02T13:16:46.482Z,9.10
2018-08-02T13:19:14.590Z,9.20
2018-08-02T13:21:42.752Z,9.17
2018-08-02T13:24:10.852Z,9.87
2018-08-02T13:26:38.741Z,9.70
2018-08-02T13:29:06.830Z,8.90
2018-08-02T13:31:34.966Z,8.93
2018-08-02T13:34:03.094Z,9.23
2018-08-02T13:36:31.191Z,9.20
2018-08-02T13:38:59.282Z,9.10
2018-08-02T13:41:27.384Z,9.63
2018-08-02T13:43:55.516Z,9.27
2018-08-02T13:46:23.727Z,9.47
2018-08-02T13:48:51.850Z,9.90
2018-08-02T13:51:19.976Z,9.37
2018-08-02T13:53:48.111Z,10.00
2018-08-02T13:56:16.005Z,9.90
2018-08-02T13:58:44.135Z,9.90
2018-08-02T14:01:12.293Z,9.73
2018-08-02T14:03:41.258Z,9.77
2018-08-02T14:06:09.390Z,9.90
2018-08-02T14:08:37.527Z,9.43
2018-08-02T14:11:05.678Z,9.90
2018-08-02T14:13:33.813Z,10.00
2018-08-02T14:16:01.947Z,11.00
2018-08-02T14:18:30.102Z,10.17
2018-08-02T14:20:58.270Z,10.00
2018-08-02T14:23:26.394Z,9.83
2018-08-02T14:25:54.505Z,9.97
2018-08-02T14:28:22.622Z,9.93
2018-08-02T14:30:50.782Z,11.50
2018-08-02T14:33:18.927Z,10.73
2018-08-02T14:35:47.095Z,11.03
2018-08-02T14:38:15.233Z,9.80
2018-08-02T14:40:43.379Z,10.20
2018-08-02T14:43:11.492Z,9.93
2018-08-02T14:45:39.686Z,10.33
2018-08-02T14:48:08.095Z,10.60
2018-08-02T14:50:36.740Z,10.30
2018-08-02T14:53:04.891Z,10.37
2018-08-02T14:55:33.074Z,10.33
2018-08-02T14:58:01.197Z,9.23
2018-08-02T15:00:29.682Z,10.07
2018-08-02T15:02:57.805Z,12.17
2018-08-02T15:05:25.926Z,14.03
2018-08-02T15:07:54.069Z,11.87
2018-08-02T15:10:22.205Z,10.60
2018-08-02T15:12:50.352Z,9.80
2018-08-02T15:15:18.467Z,9.90
2018-08-02T15:17:46.618Z,9.77
2018-08-02T15:20:14.863Z,10.60
2018-08-02T15:22:43.119Z,14.93
2018-08-02T15:25:12.926Z,12.17
2018-08-02T15:27:41.060Z,9.90
2018-08-02T15:30:09.166Z,9.90
2018-08-02T15:32:37.384Z,9.70
2018-08-02T15:35:05.622Z,9.70
2018-08-02T15:37:33.759Z,9.90
2018-08-02T15:40:01.887Z,9.73
2018-08-02T15:42:30.038Z,10.70
2018-08-02T15:44:58.222Z,11.87
2018-08-02T15:47:26.318Z,12.50
2018-08-02T15:49:54.524Z,13.53
2018-08-02T15:52:22.708Z,15.77
2018-08-02T15:54:50.831Z,10.47
2018-08-02T15:57:18.961Z,10.60
2018-08-02T15:59:47.073Z,12.00
2018-08-02T16:02:15.290Z,10.17
2018-08-02T16:04:43.438Z,10.07
2018-08-02T16:07:11.570Z,10.23
2018-08-02T16:09:46.149Z,20.07
2018-08-02T16:12:14.426Z,11.87
2018-08-02T16:14:42.579Z,11.23
2018-08-02T16:17:10.682Z,10.27
2018-08-02T16:19:38.844Z,10.67
2018-08-02T16:22:07.919Z,10.60
2018-08-02T16:24:36.123Z,10.90
2018-08-02T16:27:04.328Z,11.90
2018-08-02T16:29:32.469Z,14.00
2018-08-02T16:32:00.687Z,11.67
2018-08-02T16:34:28.813Z,11.40
2018-08-02T16:36:56.953Z,11.23
2018-08-02T16:39:25.115Z,10.43
2018-08-02T16:41:53.295Z,11.37
2018-08-02T16:44:21.444Z,11.13
2018-08-02T16:46:49.577Z,10.80
2018-08-02T16:49:17.714Z,10.93
2018-08-02T16:51:45.825Z,11.00
2018-08-02T16:54:13.989Z,10.63
2018-08-02T16:56:42.104Z,10.67
2018-08-02T16:59:10.250Z,10.73
2018-08-02T17:01:38.363Z,11.03
2018-08-02T17:04:06.274Z,11.00
2018-08-02T17:06:35.138Z,10.73
2018-08-02T17:09:04.565Z,11.23
2018-08-02T17:11:32.723Z,11.27
2018-08-02T17:14:00.917Z,11.30
2018-08-02T17:16:29.059Z,11.73
2018-08-02T17:18:57.227Z,11.50
2018-08-02T17:21:25.374Z,11.33
2018-08-02T17:23:53.508Z,10.97
2018-08-02T17:26:21.642Z,11.07
2018-08-02T17:28:50.101Z,11.43
2018-08-02T17:31:18.316Z,11.63
2018-08-02T17:33:46.402Z,12.17
2018-08-02T17:36:14.548Z,12.10
2018-08-02T17:38:42.714Z,25.73
2018-08-02T17:41:10.869Z,29.53
2018-08-02T17:43:39.009Z,12.63
2018-08-02T17:46:07.171Z,12.13
2018-08-02T17:48:35.335Z,14.10
2018-08-02T17:51:03.483Z,13.40
2018-08-02T17:53:32.264Z,13.53
2018-08-02T17:56:00.387Z,12.73
2018-08-02T17:58:28.491Z,12.10
2018-08-02T18:00:56.617Z,12.93
2018-08-02T18:03:24.722Z,12.93
2018-08-02T18:05:53.078Z,13.07
2018-08-02T18:08:21.171Z,13.10
2018-08-02T18:10:49.305Z,12.83
2018-08-02T18:13:17.403Z,12.67
2018-08-02T18:15:45.523Z,12.90
2018-08-02T18:18:13.935Z,13.43
2018-08-02T18:20:42.043Z,12.90
2018-08-02T18:23:10.233Z,12.47
2018-08-02T18:25:38.320Z,13.07
2018-08-02T18:28:06.438Z,12.73
2018-08-02T18:30:34.650Z,12.20
2018-08-02T18:33:02.741Z,12.00
2018-08-02T18:35:30.885Z,12.73
2018-08-02T18:37:59.058Z,12.63
2018-08-02T18:40:27.467Z,11.90
2018-08-02T18:42:55.651Z,12.17
2018-08-02T18:45:23.798Z,12.87
2018-08-02T18:47:51.927Z,11.63
2018-08-02T18:52:54.627Z,13.43
2018-08-02T18:55:22.758Z,13.70
2018-08-02T18:57:50.869Z,12.23
2018-08-02T19:00:20.990Z,13.10
2018-08-02T19:02:48.898Z,12.97
2018-08-02T19:05:17.162Z,11.07
2018-08-02T19:07:45.299Z,11.03
2018-08-02T19:10:13.496Z,11.30
2018-08-02T19:12:41.650Z,10.77
2018-08-02T19:15:10.945Z,11.47
2018-08-02T19:17:39.513Z,11.53
2018-08-02T19:20:07.758Z,13.73
2018-08-02T19:22:36.165Z,13.77
2018-08-02T19:25:04.918Z,11.40
2018-08-02T19:27:33.038Z,12.23
2018-08-02T19:30:01.414Z,17.77
2018-08-02T19:32:29.514Z,17.07
2018-08-02T19:34:57.680Z,12.60
2018-08-02T19:37:25.833Z,12.90
2018-08-02T19:39:53.937Z,10.87
2018-08-02T19:42:22.070Z,16.70
2018-08-02T19:44:50.154Z,17.13
2018-08-02T19:47:18.275Z,14.40
2018-08-02T19:49:46.406Z,13.73
2018-08-02T19:52:14.520Z,12.20
2018-08-02T19:54:42.750Z,11.47
2018-08-02T19:57:10.979Z,10.43
2018-08-02T19:59:39.113Z,11.30
2018-08-02T20:02:07.247Z,11.60
2018-08-02T20:04:35.360Z,10.47
2018-08-02T20:07:03.492Z,10.93
2018-08-02T20:10:56.070Z,9.97
2018-08-02T20:13:24.179Z,12.67
2018-08-02T20:15:52.281Z,21.30
2018-08-02T20:18:20.375Z,14.73
2018-08-02T20:20:48.470Z,13.70
2018-08-02T20:23:16.571Z,11.50
2018-08-02T20:25:44.747Z,11.23
2018-08-02T20:28:12.868Z,11.30
2018-08-02T20:30:41.002Z,10.77
2018-08-02T20:33:09.162Z,11.20
2018-08-02T20:35:37.300Z,11.23
2018-08-02T20:38:05.516Z,10.73
2018-08-02T20:40:33.838Z,10.90
2018-08-02T20:43:01.976Z,10.97
2018-08-02T20:45:30.115Z,11.03
2018-08-02T20:47:58.066Z,11.30
2018-08-02T20:50:26.179Z,11.23
2018-08-02T20:52:54.304Z,10.80
2018-08-02T20:55:22.569Z,10.80
2018-08-02T20:57:50.695Z,11.00
2018-08-02T21:00:18.815Z,11.07
2018-08-02T21:02:46.935Z,11.33
2018-08-02T21:05:15.059Z,11.27
2018-08-02T21:07:43.159Z,11.37
2018-08-02T21:10:11.549Z,10.80
2018-08-02T21:12:39.691Z,11.57
2018-08-02T21:15:07.842Z,11.53
2018-08-02T21:17:35.959Z,11.47
2018-08-02T21:20:04.126Z,11.20
2018-08-02T21:22:32.256Z,11.10
2018-08-02T21:25:00.438Z,12.27
2018-08-02T21:27:28.536Z,11.47
2018-08-02T21:29:56.689Z,11.37
2018-08-02T21:32:24.811Z,11.07
2018-08-02T21:34:52.771Z,11.33
2018-08-02T21:37:20.885Z,11.90
2018-08-02T21:39:49.002Z,11.53
2018-08-02T21:42:17.154Z,11.90
2018-08-02T21:44:45.271Z,11.43
2018-08-02T21:47:13.365Z,12.03
2018-08-02T21:49:41.531Z,12.13
2018-08-02T21:52:09.667Z,12.10
2018-08-02T21:54:37.816Z,12.23
2018-08-02T21:57:05.888Z,11.37
2018-08-02T21:59:33.980Z,12.30
2018-08-02T22:02:02.075Z,12.10
2018-08-02T22:04:30.194Z,12.83
2018-08-02T22:07:03.617Z,12.27
2018-08-02T22:09:31.730Z,11.97
2018-08-02T22:14:08.242Z,11.97
2018-08-02T22:16:36.339Z,11.67
2018-08-02T22:19:04.455Z,10.67
2018-08-02T22:21:32.596Z,11.80
2018-08-02T22:24:00.734Z,9.87
2018-08-02T22:26:28.893Z,9.83
2018-08-02T22:28:57.055Z,9.90
2018-08-02T22:31:25.190Z,9.60
2018-08-02T22:33:53.327Z,9.70
2018-08-02T22:36:21.420Z,9.60
2018-08-02T22:38:49.525Z,9.40
2018-08-02T22:41:17.646Z,9.07
2018-08-02T22:43:45.838Z,8.70
2018-08-02T22:46:13.950Z,8.00
2018-08-02T22:48:42.047Z,8.30
2018-08-02T22:51:10.203Z,7.80
2018-08-02T22:53:38.347Z,7.90
2018-08-02T22:56:06.471Z,7.80
2018-08-02T22:58:34.645Z,6.90
2018-08-02T23:01:02.755Z,7.40
2018-08-02T23:03:30.892Z,7.27
2018-08-02T23:05:59.001Z,6.50
2018-08-02T23:08:27.094Z,6.70
2018-08-02T23:10:55.218Z,6.77
2018-08-02T23:13:23.322Z,6.77
2018-08-02T23:15:51.419Z,6.23
2018-08-02T23:18:19.522Z,6.30
2018-08-02T23:20:47.597Z,6.37
2018-08-02T23:23:15.718Z,6.17
2018-08-02T23:25:43.838Z,5.80
2018-08-02T23:28:11.968Z,5.57
2018-08-02T23:30:40.055Z,6.00
2018-08-02T23:33:08.185Z,5.77
2018-08-02T23:35:36.258Z,6.03
2018-08-02T23:38:04.371Z,5.70
2018-08-02T23:40:32.483Z,5.60
2018-08-02T23:43:00.651Z,5.50
2018-08-02T23:45:28.707Z,6.00
2018-08-02T23:47:56.843Z,5.93
2018-08-02T23:50:24.937Z,5.33
2018-08-02T23:52:53.018Z,5.50
2018-08-02T23:55:21.156Z,5.37
2018-08-02T23:57:49.309Z,5.57
